createdAt,value
2019-03-18T00:01:51.941Z,68.20
2019-03-18T00:04:17.967Z,68.00
2019-03-18T00:06:44.008Z,67.80
2019-03-18T00:09:10.363Z,67.90
2019-03-18T00:11:36.417Z,67.80
2019-03-18T00:14:02.719Z,67.80
2019-03-18T00:16:28.744Z,67.90
2019-03-18T00:18:54.757Z,68.10
2019-03-18T00:21:20.806Z,68.60
2019-03-18T00:23:46.817Z,68.20
2019-03-18T00:26:12.845Z,68.60
2019-03-18T00:28:39.165Z,68.60
2019-03-18T00:31:05.184Z,68.30
2019-03-18T00:33:31.242Z,68.70
2019-03-18T00:35:57.276Z,68.80
2019-03-18T00:38:23.339Z,68.80
2019-03-18T00:40:49.362Z,68.80
2019-03-18T00:43:15.464Z,69.30
2019-03-18T00:45:41.500Z,69.10
2019-03-18T00:48:07.564Z,69.00
2019-03-18T00:50:33.570Z,69.20
2019-03-18T00:52:59.709Z,69.50
2019-03-18T00:55:25.752Z,69.90
2019-03-18T00:57:51.837Z,69.90
2019-03-18T01:00:18.189Z,69.70
2019-03-18T01:02:44.339Z,70.00
2019-03-18T01:05:10.492Z,69.90
2019-03-18T01:07:36.578Z,69.90
2019-03-18T01:10:06.126Z,69.70
2019-03-18T01:12:32.158Z,69.60
2019-03-18T01:14:58.199Z,69.70
2019-03-18T01:17:24.233Z,69.90
2019-03-18T01:19:50.302Z,70.00
2019-03-18T01:22:16.502Z,70.90
2019-03-18T01:24:42.522Z,70.20
2019-03-18T01:27:08.551Z,70.70
2019-03-18T01:29:34.849Z,70.20
2019-03-18T01:32:00.883Z,70.30
2019-03-18T01:34:26.904Z,70.90
2019-03-18T01:36:52.923Z,70.00
2019-03-18T01:39:18.964Z,70.10
2019-03-18T01:41:44.990Z,70.30
2019-03-18T01:44:11.077Z,69.80
2019-03-18T01:46:37.101Z,69.90
2019-03-18T01:49:03.117Z,70.00
2019-03-18T01:51:29.474Z,69.60
2019-03-18T01:53:55.504Z,70.00
2019-03-18T01:56:21.511Z,70.00
2019-03-18T01:58:47.538Z,70.10
2019-03-18T02:01:13.558Z,70.50
2019-03-18T02:03:39.594Z,70.10
2019-03-18T02:06:05.638Z,70.80
2019-03-18T02:08:31.924Z,70.30
2019-03-18T02:10:58.152Z,70.20
2019-03-18T02:13:24.169Z,70.40
2019-03-18T02:15:53.479Z,70.30
2019-03-18T02:18:18.134Z,70.30
2019-03-18T02:20:44.160Z,70.50
2019-03-18T02:23:10.205Z,70.40
2019-03-18T02:25:36.226Z,70.50
2019-03-18T02:28:02.257Z,70.80
2019-03-18T02:30:28.278Z,70.50
2019-03-18T02:32:54.330Z,71.40
2019-03-18T02:35:20.425Z,70.40
2019-03-18T02:37:46.774Z,70.40
2019-03-18T02:40:12.909Z,70.70
2019-03-18T02:42:38.913Z,70.70
2019-03-18T02:45:07.551Z,70.40
2019-03-18T02:47:33.591Z,71.60
2019-03-18T02:49:59.631Z,70.30
2019-03-18T02:52:25.654Z,70.30
2019-03-18T02:54:51.681Z,70.80
2019-03-18T02:57:17.703Z,70.40
2019-03-18T02:59:43.740Z,70.20
2019-03-18T03:02:10.164Z,69.80
2019-03-18T03:04:36.187Z,70.90
2019-03-18T03:07:02.306Z,70.40
2019-03-18T03:09:28.335Z,70.70
2019-03-18T03:11:54.379Z,70.30
2019-03-18T03:14:20.427Z,70.60
2019-03-18T03:16:46.522Z,70.60
2019-03-18T03:19:12.559Z,70.80
2019-03-18T03:21:38.579Z,71.20
2019-03-18T03:24:04.709Z,71.60
2019-03-18T03:26:30.795Z,71.20
2019-03-18T03:28:56.823Z,70.80
2019-03-18T03:31:22.905Z,71.30
2019-03-18T03:33:48.935Z,71.80
2019-03-18T03:36:14.932Z,71.50
2019-03-18T03:38:41.320Z,71.90
2019-03-18T03:41:07.476Z,71.30
2019-03-18T03:43:33.495Z,71.20
2019-03-18T03:45:59.561Z,71.40
2019-03-18T03:48:25.678Z,71.90
2019-03-18T03:50:51.777Z,71.80
2019-03-18T03:53:17.782Z,72.00
2019-03-18T03:55:43.931Z,71.80
2019-03-18T03:58:09.975Z,72.00
2019-03-18T04:00:36.183Z,72.00
2019-03-18T04:03:02.507Z,71.80
2019-03-18T04:05:28.681Z,71.90
2019-03-18T04:07:54.717Z,72.70
2019-03-18T04:10:20.756Z,73.50
2019-03-18T04:12:46.809Z,72.60
2019-03-18T04:15:13.946Z,72.70
2019-03-18T04:17:39.966Z,73.40
2019-03-18T04:20:11.593Z,72.60
2019-03-18T04:22:57.507Z,72.70
2019-03-18T04:25:23.614Z,72.40
2019-03-18T04:27:49.634Z,72.60
2019-03-18T04:30:15.807Z,72.50
2019-03-18T04:32:43.786Z,72.40
2019-03-18T04:35:09.800Z,72.50
2019-03-18T04:37:36.817Z,73.10
2019-03-18T04:40:04.481Z,72.20
2019-03-18T04:42:30.598Z,72.10
2019-03-18T04:44:56.705Z,72.50
2019-03-18T04:47:22.741Z,71.90
2019-03-18T04:49:48.773Z,71.90
2019-03-18T04:52:15.188Z,72.00
2019-03-18T04:54:41.194Z,71.70
2019-03-18T04:57:07.246Z,71.60
2019-03-18T04:59:33.296Z,71.70
2019-03-18T05:01:59.325Z,71.80
2019-03-18T05:04:25.352Z,72.10
2019-03-18T05:06:51.395Z,71.80
2019-03-18T05:09:17.455Z,72.20
2019-03-18T05:11:43.499Z,72.10
2019-03-18T05:14:09.518Z,72.10
2019-03-18T05:16:35.606Z,71.90
2019-03-18T05:19:01.654Z,72.00
2019-03-18T05:21:27.701Z,72.10
2019-03-18T05:23:53.729Z,72.00
2019-03-18T05:26:22.199Z,71.80
2019-03-18T05:28:47.706Z,71.70
2019-03-18T05:31:13.713Z,71.80
2019-03-18T05:33:39.754Z,71.80
2019-03-18T05:36:05.770Z,71.80
2019-03-18T05:38:31.837Z,72.10
2019-03-18T05:40:57.863Z,72.20
2019-03-18T05:43:23.889Z,72.20
2019-03-18T05:45:49.970Z,72.20
2019-03-18T05:48:16.022Z,72.30
2019-03-18T05:50:42.047Z,72.30
2019-03-18T05:53:08.069Z,72.10
2019-03-18T05:55:34.195Z,72.40
2019-03-18T05:58:00.263Z,72.30
2019-03-18T06:00:26.310Z,72.20
2019-03-18T06:02:52.332Z,72.20
2019-03-18T06:05:18.369Z,72.90
2019-03-18T06:07:44.406Z,72.10
2019-03-18T06:10:11.387Z,72.00
2019-03-18T06:12:37.550Z,71.90
2019-03-18T06:15:06.484Z,71.80
2019-03-18T06:17:32.540Z,72.20
2019-03-18T06:19:58.752Z,72.20
2019-03-18T06:22:24.859Z,72.10
2019-03-18T06:24:50.939Z,72.00
2019-03-18T06:27:16.952Z,71.90
2019-03-18T06:29:42.984Z,71.80
2019-03-18T06:32:09.003Z,72.10
2019-03-18T06:34:35.450Z,72.00
2019-03-18T06:37:01.534Z,72.00
2019-03-18T06:39:27.594Z,72.00
2019-03-18T06:41:53.662Z,72.00
2019-03-18T06:44:19.695Z,72.00
2019-03-18T06:46:45.842Z,72.10
2019-03-18T06:49:11.895Z,72.20
2019-03-18T06:51:37.897Z,71.90
2019-03-18T06:54:03.930Z,72.00
2019-03-18T06:56:29.951Z,71.90
2019-03-18T06:58:55.971Z,72.00
2019-03-18T07:01:21.999Z,72.30
2019-03-18T07:03:48.038Z,72.50
2019-03-18T07:06:14.139Z,73.30
2019-03-18T07:08:40.151Z,74.20
2019-03-18T07:11:06.230Z,74.30
2019-03-18T07:13:32.240Z,73.40
2019-03-18T07:16:00.067Z,73.10
2019-03-18T07:18:26.414Z,72.00
2019-03-18T07:20:52.641Z,70.50
2019-03-18T07:23:19.002Z,70.40
2019-03-18T07:25:45.020Z,70.30
2019-03-18T07:28:11.034Z,70.00
2019-03-18T07:30:37.081Z,69.60
2019-03-18T07:33:03.100Z,69.10
2019-03-18T07:35:29.127Z,69.00
2019-03-18T07:37:55.206Z,68.80
2019-03-18T07:40:21.706Z,69.00
2019-03-18T07:42:47.724Z,69.00
2019-03-18T07:45:15.742Z,69.20
2019-03-18T07:47:41.961Z,69.20
2019-03-18T07:50:12.537Z,68.90
2019-03-18T07:52:38.613Z,69.50
2019-03-18T07:55:12.497Z,71.10
2019-03-18T07:57:38.534Z,72.80
2019-03-18T08:00:10.500Z,73.00
2019-03-18T08:02:36.606Z,72.10
2019-03-18T08:05:05.331Z,69.60
2019-03-18T08:07:31.389Z,68.70
2019-03-18T08:09:57.419Z,67.80
2019-03-18T08:12:23.440Z,66.90
2019-03-18T08:14:49.468Z,65.40
2019-03-18T08:17:15.498Z,64.00
2019-03-18T08:19:41.527Z,62.40
2019-03-18T08:22:07.596Z,63.10
2019-03-18T08:24:33.628Z,62.20
2019-03-18T08:26:59.775Z,62.20
2019-03-18T08:29:25.802Z,62.20
2019-03-18T08:31:51.849Z,62.10
2019-03-18T08:34:17.871Z,62.00
2019-03-18T08:36:43.909Z,61.80
2019-03-18T08:39:10.290Z,62.00
2019-03-18T08:41:36.327Z,62.00
2019-03-18T08:44:02.359Z,62.50
2019-03-18T08:46:28.373Z,63.70
2019-03-18T08:48:56.004Z,64.60
2019-03-18T08:51:22.273Z,63.60
2019-03-18T08:53:48.322Z,62.60
2019-03-18T08:56:14.361Z,62.20
2019-03-18T08:58:40.397Z,60.80
2019-03-18T09:01:06.422Z,59.40
2019-03-18T09:03:32.518Z,56.20
2019-03-18T09:05:58.541Z,54.80
2019-03-18T09:08:26.458Z,53.00
2019-03-18T09:10:52.501Z,53.30
2019-03-18T09:13:18.521Z,52.90
2019-03-18T09:15:44.593Z,52.70
2019-03-18T09:18:10.654Z,53.40
2019-03-18T09:20:36.696Z,52.60
2019-03-18T09:23:02.843Z,53.30
2019-03-18T09:25:28.868Z,53.60
2019-03-18T09:27:54.903Z,54.30
2019-03-18T09:30:20.914Z,54.50
2019-03-18T09:32:47.348Z,54.90
2019-03-18T09:35:13.366Z,55.90
2019-03-18T09:37:39.573Z,55.80
2019-03-18T09:40:08.843Z,56.00
2019-03-18T09:42:34.902Z,56.20
2019-03-18T09:45:01.211Z,55.90
2019-03-18T09:47:27.229Z,55.60
2019-03-18T09:49:53.271Z,55.90
2019-03-18T09:52:19.289Z,55.70
2019-03-18T09:54:45.321Z,55.10
2019-03-18T09:57:11.341Z,55.60
2019-03-18T09:59:37.375Z,54.30
2019-03-18T10:02:03.477Z,54.30
2019-03-18T10:04:29.573Z,54.50
2019-03-18T10:06:55.614Z,55.90
2019-03-18T10:09:21.650Z,57.20
2019-03-18T10:11:47.663Z,57.20
2019-03-18T10:14:13.707Z,57.30
2019-03-18T10:16:39.765Z,56.30
2019-03-18T10:19:06.123Z,54.70
2019-03-18T10:21:34.930Z,52.20
2019-03-18T10:24:00.953Z,52.00
2019-03-18T10:26:27.013Z,52.50
2019-03-18T10:28:53.087Z,51.20
2019-03-18T10:31:19.194Z,49.80
2019-03-18T10:33:45.236Z,48.00
2019-03-18T10:36:11.256Z,49.20
2019-03-18T10:38:37.292Z,45.60
2019-03-18T10:41:03.427Z,45.00
2019-03-18T10:43:29.470Z,45.80
2019-03-18T10:45:55.506Z,43.80
2019-03-18T10:48:21.589Z,45.10
2019-03-18T10:50:47.603Z,43.10
2019-03-18T10:53:13.664Z,42.90
2019-03-18T10:55:39.694Z,42.20
2019-03-18T10:58:06.078Z,42.70
2019-03-18T11:00:32.118Z,43.40
2019-03-18T11:02:58.246Z,43.00
2019-03-18T11:05:24.374Z,42.60
2019-03-18T11:07:51.765Z,43.30
2019-03-18T11:10:18.246Z,41.80
2019-03-18T11:12:44.266Z,41.20
2019-03-18T11:15:17.351Z,39.90
2019-03-18T11:17:43.488Z,39.80
2019-03-18T11:20:13.725Z,39.60
2019-03-18T11:22:39.746Z,38.70
2019-03-18T11:25:10.258Z,39.60
2019-03-18T11:27:36.434Z,40.30
2019-03-18T11:30:04.783Z,40.10
2019-03-18T11:32:30.861Z,40.10
2019-03-18T11:34:56.902Z,40.00
2019-03-18T11:37:22.916Z,40.60
2019-03-18T11:39:48.949Z,40.00
2019-03-18T11:42:15.078Z,40.90
2019-03-18T11:44:41.126Z,42.10
2019-03-18T11:47:07.731Z,43.50
2019-03-18T11:49:39.446Z,44.30
2019-03-18T11:52:02.069Z,45.30
2019-03-18T11:54:28.175Z,46.50
2019-03-18T11:56:55.381Z,46.90
2019-03-18T11:59:21.432Z,47.60
2019-03-18T12:01:47.468Z,48.50
2019-03-18T12:04:13.518Z,49.50
2019-03-18T12:06:39.667Z,50.40
2019-03-18T12:09:06.114Z,50.50
2019-03-18T12:11:32.462Z,51.00
2019-03-18T12:13:58.538Z,51.30
2019-03-18T12:16:24.647Z,51.50
2019-03-18T12:18:50.710Z,51.60
2019-03-18T12:21:16.808Z,51.90
2019-03-18T12:23:43.810Z,52.30
2019-03-18T12:26:09.867Z,51.70
2019-03-18T12:28:35.898Z,52.10
2019-03-18T12:31:02.134Z,50.70
2019-03-18T12:33:28.165Z,51.40
2019-03-18T12:35:54.198Z,52.00
2019-03-18T12:38:20.274Z,52.80
2019-03-18T12:40:46.663Z,53.20
2019-03-18T12:43:12.669Z,49.60
2019-03-18T12:45:39.087Z,47.10
2019-03-18T12:48:05.710Z,46.30
2019-03-18T12:50:49.357Z,44.50
2019-03-18T12:52:59.724Z,42.50
2019-03-18T12:55:25.744Z,43.10
2019-03-18T12:57:52.013Z,43.70
2019-03-18T13:00:31.818Z,42.30
2019-03-18T13:02:57.846Z,40.20
2019-03-18T13:05:23.907Z,39.10
2019-03-18T13:07:49.996Z,38.40
2019-03-18T13:10:21.479Z,37.80
2019-03-18T13:12:47.667Z,38.00
2019-03-18T13:15:17.315Z,37.70
2019-03-18T13:17:43.969Z,38.60
2019-03-18T13:20:12.494Z,38.40
2019-03-18T13:22:38.702Z,38.80
2019-03-18T13:25:07.215Z,39.60
2019-03-18T13:27:33.764Z,39.40
2019-03-18T13:29:59.784Z,38.60
2019-03-18T13:32:26.046Z,37.00
2019-03-18T13:34:52.068Z,37.00
2019-03-18T13:37:18.094Z,37.00
2019-03-18T13:39:44.130Z,37.30
2019-03-18T13:42:10.166Z,37.20
2019-03-18T13:44:36.203Z,37.60
2019-03-18T13:47:02.436Z,39.10
2019-03-18T13:49:28.458Z,40.70
2019-03-18T13:51:54.482Z,42.30
2019-03-18T13:54:20.852Z,43.70
2019-03-18T13:56:46.894Z,44.70
2019-03-18T13:59:13.191Z,45.50
2019-03-18T14:01:39.209Z,46.80
2019-03-18T14:04:05.335Z,47.90
2019-03-18T14:06:31.341Z,47.20
2019-03-18T14:08:57.395Z,48.30
2019-03-18T14:11:23.429Z,48.80
2019-03-18T14:13:49.456Z,49.70
2019-03-18T14:16:15.494Z,50.50
2019-03-18T14:18:41.517Z,52.00
2019-03-18T14:21:07.609Z,51.80
2019-03-18T14:23:33.700Z,52.30
2019-03-18T14:25:59.738Z,53.00
2019-03-18T14:28:25.785Z,53.50
2019-03-18T14:30:51.786Z,53.10
2019-03-18T14:33:25.346Z,53.10
2019-03-18T14:35:52.213Z,53.70
2019-03-18T14:38:18.367Z,53.80
2019-03-18T14:40:44.917Z,54.50
2019-03-18T14:43:10.987Z,55.20
2019-03-18T14:45:37.011Z,55.30
2019-03-18T14:48:03.263Z,55.40
2019-03-18T14:50:29.325Z,55.30
2019-03-18T14:52:55.609Z,55.00
2019-03-18T14:55:21.639Z,54.60
2019-03-18T14:57:48.143Z,54.40
2019-03-18T15:00:24.198Z,54.10
2019-03-18T15:02:50.335Z,53.40
2019-03-18T15:05:16.499Z,51.90
2019-03-18T15:07:42.809Z,50.90
2019-03-18T15:10:11.954Z,49.30
2019-03-18T15:12:38.232Z,49.20
2019-03-18T15:15:07.682Z,48.70
2019-03-18T15:17:33.777Z,48.50
2019-03-18T15:20:00.179Z,48.30
2019-03-18T15:22:26.435Z,48.60
2019-03-18T15:24:52.464Z,48.80
2019-03-18T15:27:18.494Z,48.70
2019-03-18T15:29:44.813Z,48.70
2019-03-18T15:32:10.832Z,48.40
2019-03-18T15:34:36.923Z,48.10
2019-03-18T15:37:02.940Z,48.00
2019-03-18T15:39:28.954Z,48.00
2019-03-18T15:41:54.988Z,48.20
2019-03-18T15:44:21.006Z,48.40
2019-03-18T15:46:47.046Z,48.40
2019-03-18T15:49:13.069Z,48.40
2019-03-18T15:51:39.263Z,48.50
2019-03-18T15:54:05.399Z,48.40
2019-03-18T15:56:31.426Z,48.40
2019-03-18T15:58:57.453Z,49.10
2019-03-18T16:01:25.735Z,48.50
2019-03-18T16:03:51.766Z,48.50
2019-03-18T16:06:17.847Z,47.90
2019-03-18T16:08:44.201Z,47.40
2019-03-18T16:11:10.261Z,47.00
2019-03-18T16:13:36.279Z,46.40
2019-03-18T16:16:03.054Z,47.00
2019-03-18T16:18:29.147Z,47.10
2019-03-18T16:20:55.412Z,46.40
2019-03-18T16:23:21.515Z,46.50
2019-03-18T16:25:47.530Z,45.80
2019-03-18T16:28:13.600Z,45.30
2019-03-18T16:30:39.678Z,45.60
2019-03-18T16:33:05.805Z,45.50
2019-03-18T16:35:31.845Z,45.70
2019-03-18T16:37:57.976Z,45.90
2019-03-18T16:40:24.125Z,46.10
2019-03-18T16:42:50.231Z,46.10
2019-03-18T16:45:17.109Z,46.10
2019-03-18T16:47:43.176Z,46.70
2019-03-18T16:50:21.187Z,46.60
2019-03-18T16:52:47.299Z,46.80
2019-03-18T16:55:13.397Z,46.70
2019-03-18T16:57:39.597Z,47.00
2019-03-18T17:00:12.470Z,46.90
2019-03-18T17:02:38.734Z,46.90
2019-03-18T17:05:06.302Z,47.00
2019-03-18T17:07:32.330Z,46.90
2019-03-18T17:09:58.391Z,46.70
2019-03-18T17:12:24.427Z,46.60
2019-03-18T17:14:50.481Z,46.70
2019-03-18T17:17:16.528Z,46.70
2019-03-18T17:19:42.641Z,46.70
2019-03-18T17:22:08.727Z,46.60
2019-03-18T17:24:34.821Z,46.70
2019-03-18T17:27:00.862Z,46.70
2019-03-18T17:29:26.910Z,46.70
2019-03-18T17:31:52.914Z,46.80
2019-03-18T17:34:18.956Z,47.50
2019-03-18T17:36:44.996Z,47.10
2019-03-18T17:39:11.042Z,47.20
2019-03-18T17:41:37.120Z,47.40
2019-03-18T17:44:03.929Z,47.70
2019-03-18T17:46:29.962Z,47.60
2019-03-18T17:48:56.494Z,47.50
2019-03-18T17:51:23.027Z,47.50
2019-03-18T17:53:49.107Z,47.60
2019-03-18T17:56:15.128Z,47.90
2019-03-18T17:58:41.168Z,48.00
2019-03-18T18:01:07.201Z,48.00
2019-03-18T18:03:33.474Z,48.20
2019-03-18T18:05:59.528Z,48.60
2019-03-18T18:08:25.542Z,48.40
2019-03-18T18:10:52.149Z,48.50
2019-03-18T18:13:18.164Z,48.50
2019-03-18T18:15:44.235Z,48.60
2019-03-18T18:18:10.344Z,48.70
2019-03-18T18:20:37.671Z,48.80
2019-03-18T18:23:13.754Z,49.00
2019-03-18T18:25:32.024Z,49.00
2019-03-18T18:27:58.559Z,49.20
2019-03-18T18:30:24.597Z,49.30
2019-03-18T18:32:50.634Z,49.50
2019-03-18T18:35:16.654Z,49.70
2019-03-18T18:37:42.968Z,49.80
2019-03-18T18:40:16.361Z,49.90
2019-03-18T18:42:42.479Z,50.10
2019-03-18T18:45:10.405Z,50.20
2019-03-18T18:47:36.538Z,50.30
2019-03-18T18:50:04.877Z,50.40
2019-03-18T18:52:31.085Z,50.50
2019-03-18T18:54:57.113Z,50.70
2019-03-18T18:57:23.113Z,50.80
2019-03-18T18:59:49.147Z,51.00
2019-03-18T19:02:15.455Z,51.10
2019-03-18T19:04:41.577Z,51.30
2019-03-18T19:07:07.677Z,51.50
2019-03-18T19:09:33.727Z,51.60
2019-03-18T19:11:59.782Z,51.80
2019-03-18T19:14:26.507Z,52.00
2019-03-18T19:16:52.623Z,52.30
2019-03-18T19:19:18.663Z,52.30
2019-03-18T19:21:44.699Z,52.50
2019-03-18T19:24:10.788Z,52.60
2019-03-18T19:26:36.930Z,52.80
2019-03-18T19:29:03.071Z,53.10
2019-03-18T19:31:29.100Z,53.40
2019-03-18T19:33:55.137Z,53.60
2019-03-18T19:36:21.168Z,53.80
2019-03-18T19:38:47.273Z,54.00
2019-03-18T19:41:13.333Z,54.10
2019-03-18T19:43:39.600Z,55.00
2019-03-18T19:46:05.968Z,54.50
2019-03-18T19:48:34.306Z,54.70
2019-03-18T19:51:00.126Z,54.80
2019-03-18T19:53:26.224Z,55.00
2019-03-18T19:55:52.277Z,55.10
2019-03-18T19:58:18.344Z,55.20
2019-03-18T20:00:44.596Z,55.40
2019-03-18T20:03:10.650Z,55.60
2019-03-18T20:05:36.722Z,55.60
2019-03-18T20:08:02.875Z,55.90
2019-03-18T20:10:28.914Z,56.00
2019-03-18T20:12:55.030Z,56.10
2019-03-18T20:15:21.208Z,56.20
2019-03-18T20:17:47.316Z,55.70
2019-03-18T20:20:17.182Z,56.20
2019-03-18T20:22:43.214Z,56.30
2019-03-18T20:25:10.767Z,56.30
2019-03-18T20:27:36.878Z,56.50
2019-03-18T20:30:09.455Z,56.80
2019-03-18T20:32:35.480Z,56.60
2019-03-18T20:35:02.327Z,56.60
2019-03-18T20:37:28.379Z,57.60
2019-03-18T20:39:54.521Z,56.70
2019-03-18T20:42:20.643Z,56.80
2019-03-18T20:44:46.888Z,56.60
2019-03-18T20:47:12.931Z,56.60
2019-03-18T20:49:38.945Z,56.60
2019-03-18T20:52:16.014Z,56.60
2019-03-18T20:54:32.973Z,56.80
2019-03-18T20:56:59.009Z,56.90
2019-03-18T20:59:25.024Z,56.80
2019-03-18T21:01:51.041Z,56.80
2019-03-18T21:04:17.069Z,56.70
2019-03-18T21:06:43.119Z,57.10
2019-03-18T21:09:09.122Z,57.00
2019-03-18T21:11:35.150Z,57.10
2019-03-18T21:14:01.187Z,56.90
2019-03-18T21:16:27.205Z,56.90
2019-03-18T21:18:53.248Z,56.90
2019-03-18T21:21:19.290Z,56.90
2019-03-18T21:23:45.378Z,56.90
2019-03-18T21:26:11.408Z,56.90
2019-03-18T21:28:41.490Z,56.90
2019-03-18T21:31:05.339Z,57.00
2019-03-18T21:33:31.413Z,57.70
2019-03-18T21:35:57.447Z,57.10
2019-03-18T21:38:23.650Z,57.20
2019-03-18T21:40:49.685Z,57.20
2019-03-18T21:43:15.715Z,57.30
2019-03-18T21:45:41.735Z,57.40
2019-03-18T21:48:07.789Z,57.40
2019-03-18T21:50:33.801Z,57.50
2019-03-18T21:52:59.842Z,57.50
2019-03-18T21:55:25.881Z,57.60
2019-03-18T21:57:52.084Z,57.70
2019-03-18T22:00:19.414Z,57.70
2019-03-18T22:02:45.444Z,57.80
2019-03-18T22:05:11.908Z,57.80
2019-03-18T22:07:37.966Z,57.90
2019-03-18T22:10:07.801Z,58.00
2019-03-18T22:12:33.838Z,58.20
2019-03-18T22:14:59.867Z,58.00
2019-03-18T22:17:25.915Z,58.20
2019-03-18T22:19:51.951Z,58.30
2019-03-18T22:22:17.976Z,58.30
2019-03-18T22:24:45.531Z,58.30
2019-03-18T22:27:11.920Z,58.40
2019-03-18T22:29:38.196Z,58.50
2019-03-18T22:32:04.237Z,58.50
2019-03-18T22:34:30.309Z,58.50
2019-03-18T22:36:56.388Z,58.60
2019-03-18T22:39:22.475Z,58.60
2019-03-18T22:41:48.487Z,58.60
2019-03-18T22:44:14.847Z,58.60
2019-03-18T22:46:40.858Z,58.70
2019-03-18T22:49:06.901Z,58.60
2019-03-18T22:51:32.909Z,58.70
2019-03-18T22:53:58.967Z,58.80
2019-03-18T22:56:25.012Z,58.50
2019-03-18T22:58:51.031Z,58.90
2019-03-18T23:01:17.857Z,58.80
2019-03-18T23:03:44.274Z,58.90
2019-03-18T23:06:10.306Z,59.00
2019-03-18T23:08:36.357Z,59.00
2019-03-18T23:11:02.383Z,59.10
2019-03-18T23:13:28.422Z,59.10
2019-03-18T23:15:54.473Z,59.10
2019-03-18T23:18:20.537Z,59.20
2019-03-18T23:20:46.583Z,59.20
2019-03-18T23:23:12.739Z,59.20
2019-03-18T23:25:38.772Z,59.20
2019-03-18T23:28:04.809Z,59.30
2019-03-18T23:30:31.130Z,59.30
2019-03-18T23:32:57.154Z,59.40
2019-03-18T23:35:23.301Z,59.40
2019-03-18T23:37:49.336Z,59.50
2019-03-18T23:40:15.373Z,59.50
2019-03-18T23:42:41.391Z,59.60
2019-03-18T23:45:09.144Z,59.60
2019-03-18T23:47:35.181Z,59.70
2019-03-18T23:50:01.214Z,59.70
2019-03-18T23:52:27.466Z,59.80
2019-03-18T23:54:53.505Z,59.70
2019-03-18T23:57:19.536Z,60.70
2019-03-18T23:59:45.570Z,60.20
